createdAt,value
2017-08-14T00:00:33.790Z,0
2017-08-14T00:01:44.279Z,0
2017-08-14T00:02:54.767Z,0
2017-08-14T00:04:04.597Z,0
2017-08-14T00:05:15.115Z,0
2017-08-14T00:06:25.281Z,0
2017-08-14T00:07:35.441Z,0
2017-08-14T00:08:45.599Z,0
2017-08-14T00:09:56.087Z,0
2017-08-14T00:11:06.580Z,0
2017-08-14T00:12:17.069Z,0
2017-08-14T00:13:27.225Z,0
2017-08-14T00:14:37.721Z,0
2017-08-14T00:15:47.878Z,0
2017-08-14T00:16:58.369Z,0
2017-08-14T00:18:08.856Z,0
2017-08-14T00:19:19.011Z,0
2017-08-14T00:20:29.497Z,0
2017-08-14T00:21:39.986Z,0
2017-08-14T00:22:50.157Z,0
2017-08-14T00:24:00.642Z,0
2017-08-14T00:25:11.133Z,0
2017-08-14T00:26:20.961Z,0
2017-08-14T00:27:31.448Z,0
2017-08-14T00:28:41.740Z,0
2017-08-14T00:29:52.015Z,0
2017-08-14T00:31:02.284Z,0
2017-08-14T00:32:12.236Z,0
2017-08-14T00:33:22.505Z,0
2017-08-14T00:34:32.775Z,0
2017-08-14T00:35:43.045Z,0
2017-08-14T00:36:53.312Z,0
2017-08-14T00:38:03.595Z,0
2017-08-14T00:39:13.861Z,0
2017-08-14T00:40:24.131Z,0
2017-08-14T00:41:34.400Z,0
2017-08-14T00:42:44.354Z,0
2017-08-14T00:43:54.626Z,0
2017-08-14T00:45:04.898Z,0
2017-08-14T00:46:15.168Z,0
2017-08-14T00:47:25.121Z,0
2017-08-14T00:48:35.387Z,0
2017-08-14T00:49:45.657Z,0
2017-08-14T00:50:55.923Z,0
2017-08-14T00:52:06.189Z,0
2017-08-14T00:53:16.458Z,0
2017-08-14T00:54:26.411Z,0
2017-08-14T00:55:36.688Z,0
2017-08-14T00:56:46.641Z,0
2017-08-14T00:57:56.917Z,0
2017-08-14T00:59:06.870Z,0
2017-08-14T01:00:17.145Z,0
2017-08-14T01:01:27.098Z,0
2017-08-14T01:02:37.384Z,0
2017-08-14T01:03:47.648Z,0
2017-08-14T01:04:57.597Z,0
2017-08-14T01:06:07.865Z,0
2017-08-14T01:07:18.144Z,0
2017-08-14T01:08:28.429Z,0
2017-08-14T01:09:38.698Z,0
2017-08-14T01:10:48.969Z,0
2017-08-14T01:11:59.236Z,0
2017-08-14T01:13:09.503Z,0
2017-08-14T01:14:19.770Z,0
2017-08-14T01:15:29.722Z,0
2017-08-14T01:16:39.988Z,0
2017-08-14T01:17:49.624Z,0
2017-08-14T01:18:59.894Z,0
2017-08-14T01:20:09.864Z,0
2017-08-14T01:21:20.232Z,0
2017-08-14T01:22:30.184Z,0
2017-08-14T01:23:40.449Z,0
2017-08-14T01:24:50.713Z,0
2017-08-14T01:26:00.982Z,0
2017-08-14T01:27:10.940Z,0
2017-08-14T01:28:21.205Z,0
2017-08-14T01:29:31.471Z,0
2017-08-14T01:30:41.423Z,0
2017-08-14T01:31:51.690Z,0
2017-08-14T01:33:01.956Z,0
2017-08-14T01:34:11.909Z,0
2017-08-14T01:35:22.177Z,0
2017-08-14T01:36:32.128Z,0
2017-08-14T01:37:42.393Z,0
2017-08-14T01:38:52.663Z,0
2017-08-14T01:40:02.932Z,0
2017-08-14T01:41:12.884Z,0
2017-08-14T01:42:22.837Z,0
2017-08-14T01:43:32.790Z,0
2017-08-14T01:44:43.057Z,0
2017-08-14T01:45:53.329Z,0
2017-08-14T01:47:03.596Z,0
2017-08-14T01:48:13.555Z,0
2017-08-14T01:49:23.824Z,0
2017-08-14T01:50:34.092Z,0
2017-08-14T01:51:44.359Z,0
2017-08-14T01:52:54.630Z,0
2017-08-14T01:54:04.583Z,0
2017-08-14T01:55:14.578Z,0
2017-08-14T01:56:24.530Z,0
2017-08-14T01:57:34.490Z,0
2017-08-14T01:58:44.758Z,0
2017-08-14T01:59:55.028Z,0
2017-08-14T02:01:05.298Z,0
2017-08-14T02:02:15.563Z,0
2017-08-14T02:03:25.516Z,0
2017-08-14T02:04:35.785Z,0
2017-08-14T02:05:46.058Z,0
2017-08-14T02:06:56.323Z,0
2017-08-14T02:08:06.589Z,0
2017-08-14T02:09:16.853Z,0
2017-08-14T02:10:26.487Z,0
2017-08-14T02:11:36.757Z,0
2017-08-14T02:12:46.714Z,0
2017-08-14T02:13:56.986Z,0
2017-08-14T02:15:07.255Z,0
2017-08-14T02:16:17.624Z,0
2017-08-14T02:17:27.889Z,0
2017-08-14T02:18:38.159Z,0
2017-08-14T02:19:48.426Z,0
2017-08-14T02:20:58.697Z,0
2017-08-14T02:22:08.351Z,0
2017-08-14T02:23:18.298Z,0
2017-08-14T02:24:28.562Z,0
2017-08-14T02:25:38.834Z,0
2017-08-14T02:26:48.786Z,0
2017-08-14T02:27:59.053Z,0
2017-08-14T02:29:09.318Z,0
2017-08-14T02:30:19.594Z,0
2017-08-14T02:31:29.881Z,0
2017-08-14T02:32:40.149Z,0
2017-08-14T02:33:50.420Z,0
2017-08-14T02:35:00.685Z,0
2017-08-14T02:36:10.639Z,0
2017-08-14T02:37:20.906Z,0
2017-08-14T02:38:30.861Z,0
2017-08-14T02:39:41.137Z,0
2017-08-14T02:40:51.092Z,0
2017-08-14T02:42:01.359Z,0
2017-08-14T02:43:11.625Z,0
2017-08-14T02:44:21.907Z,0
2017-08-14T02:45:32.482Z,0
2017-08-14T02:46:42.758Z,0
2017-08-14T02:47:52.712Z,0
2017-08-14T02:49:02.975Z,0
2017-08-14T02:50:12.955Z,0
2017-08-14T02:51:23.258Z,0
2017-08-14T02:52:33.528Z,0
2017-08-14T02:53:43.800Z,0
2017-08-14T02:54:54.069Z,0
2017-08-14T02:56:04.335Z,0
2017-08-14T02:57:14.601Z,0
2017-08-14T02:58:24.867Z,0
2017-08-14T02:59:35.129Z,0
2017-08-14T03:00:45.397Z,0
2017-08-14T03:01:55.663Z,0
2017-08-14T03:03:05.932Z,0
2017-08-14T03:04:15.885Z,0
2017-08-14T03:05:26.154Z,0
2017-08-14T03:06:36.424Z,0
2017-08-14T03:07:46.695Z,0
2017-08-14T03:08:56.647Z,0
2017-08-14T03:10:06.911Z,0
2017-08-14T03:11:16.866Z,0
2017-08-14T03:12:27.131Z,0
2017-08-14T03:13:37.084Z,0
2017-08-14T03:14:47.040Z,5
2017-08-14T03:15:57.314Z,5
2017-08-14T03:17:07.578Z,5
2017-08-14T03:18:17.844Z,5
2017-08-14T03:19:28.112Z,5
2017-08-14T03:20:38.379Z,5
2017-08-14T03:21:48.645Z,5
2017-08-14T03:22:58.911Z,10
2017-08-14T03:24:08.865Z,10
2017-08-14T03:25:18.819Z,10
2017-08-14T03:26:29.094Z,10
2017-08-14T03:27:39.363Z,10
2017-08-14T03:28:48.998Z,10
2017-08-14T03:29:59.262Z,15
2017-08-14T03:31:09.535Z,15
2017-08-14T03:32:19.827Z,15
2017-08-14T03:33:29.782Z,20
2017-08-14T03:34:40.046Z,20
2017-08-14T03:35:50.022Z,20
2017-08-14T03:37:00.295Z,20
2017-08-14T03:38:10.569Z,25
2017-08-14T03:39:20.832Z,25
2017-08-14T03:40:30.467Z,25
2017-08-14T03:41:40.734Z,25
2017-08-14T03:42:50.368Z,30
2017-08-14T03:44:00.634Z,30
2017-08-14T03:45:10.904Z,30
2017-08-14T03:46:21.176Z,35
2017-08-14T03:47:31.132Z,35
2017-08-14T03:48:41.396Z,35
2017-08-14T03:49:51.656Z,35
2017-08-14T03:51:01.602Z,40
2017-08-14T03:52:11.560Z,40
2017-08-14T03:53:21.825Z,40
2017-08-14T03:54:31.774Z,40
2017-08-14T03:55:42.044Z,40
2017-08-14T03:56:51.992Z,40
2017-08-14T03:58:01.631Z,45
2017-08-14T03:59:11.899Z,45
2017-08-14T04:00:22.171Z,45
2017-08-14T04:01:32.441Z,50
2017-08-14T04:02:42.421Z,50
2017-08-14T04:03:52.369Z,50
2017-08-14T04:05:02.641Z,55
2017-08-14T04:06:12.597Z,55
2017-08-14T04:07:22.886Z,55
2017-08-14T04:08:33.148Z,60
2017-08-14T04:09:43.436Z,60
2017-08-14T04:10:53.700Z,60
2017-08-14T04:12:03.966Z,60
2017-08-14T04:13:14.243Z,65
2017-08-14T04:14:24.515Z,65
2017-08-14T04:15:34.786Z,65
2017-08-14T04:16:44.430Z,70
2017-08-14T04:17:54.695Z,70
2017-08-14T04:19:04.650Z,70
2017-08-14T04:20:14.290Z,75
2017-08-14T04:21:24.245Z,75
2017-08-14T04:22:34.510Z,75
2017-08-14T04:23:44.790Z,80
2017-08-14T04:24:55.065Z,80
2017-08-14T04:26:05.331Z,80
2017-08-14T04:27:15.596Z,80
2017-08-14T04:28:25.862Z,80
2017-08-14T04:29:35.812Z,80
2017-08-14T04:30:46.089Z,80
2017-08-14T04:31:56.351Z,85
2017-08-14T04:33:06.620Z,85
2017-08-14T04:34:16.579Z,85
2017-08-14T04:35:26.855Z,85
2017-08-14T04:36:37.007Z,90
2017-08-14T04:37:47.273Z,90
2017-08-14T04:38:57.225Z,90
2017-08-14T04:40:06.866Z,95
2017-08-14T04:41:17.137Z,95
2017-08-14T04:42:27.085Z,95
2017-08-14T04:43:36.412Z,95
2017-08-14T04:44:46.679Z,100
2017-08-14T04:45:56.949Z,100
2017-08-14T04:47:06.908Z,100
2017-08-14T04:48:17.184Z,105
2017-08-14T04:49:27.142Z,105
2017-08-14T04:50:37.094Z,105
2017-08-14T04:51:47.362Z,105
2017-08-14T04:52:57.668Z,110
2017-08-14T04:54:07.933Z,110
2017-08-14T04:55:17.570Z,110
2017-08-14T04:56:27.523Z,110
2017-08-14T04:57:37.790Z,110
2017-08-14T04:58:47.750Z,110
2017-08-14T04:59:58.024Z,110
2017-08-14T05:01:08.301Z,110
2017-08-14T05:02:18.568Z,110
2017-08-14T05:03:28.834Z,115
2017-08-14T05:04:39.101Z,115
2017-08-14T05:05:49.366Z,115
2017-08-14T05:06:59.318Z,115
2017-08-14T05:08:09.585Z,115
2017-08-14T05:09:19.853Z,115
2017-08-14T05:10:30.123Z,120
2017-08-14T05:11:40.077Z,120
2017-08-14T05:12:49.716Z,120
2017-08-14T05:13:59.986Z,120
2017-08-14T05:15:09.950Z,120
2017-08-14T05:16:20.216Z,120
2017-08-14T05:17:30.173Z,125
2017-08-14T05:18:40.451Z,130
2017-08-14T05:19:50.719Z,125
2017-08-14T05:21:00.674Z,125
2017-08-14T05:22:10.316Z,125
2017-08-14T05:23:20.581Z,125
2017-08-14T05:24:30.848Z,125
2017-08-14T05:25:41.113Z,130
2017-08-14T05:26:50.751Z,130
2017-08-14T05:28:01.017Z,130
2017-08-14T05:29:10.970Z,130
2017-08-14T05:30:21.237Z,135
2017-08-14T05:31:31.502Z,130
2017-08-14T05:32:41.775Z,130
2017-08-14T05:33:52.046Z,135
2017-08-14T05:35:02.320Z,135
2017-08-14T05:36:12.274Z,135
2017-08-14T05:37:22.547Z,135
2017-08-14T05:38:32.184Z,135
2017-08-14T05:39:42.138Z,135
2017-08-14T05:40:52.118Z,135
2017-08-14T05:42:02.400Z,135
2017-08-14T05:43:12.382Z,135
2017-08-14T05:44:22.649Z,135
2017-08-14T05:45:32.290Z,140
2017-08-14T05:46:42.560Z,140
2017-08-14T05:47:52.829Z,140
2017-08-14T05:49:02.782Z,140
2017-08-14T05:50:13.061Z,140
2017-08-14T05:51:23.337Z,140
2017-08-14T05:52:33.611Z,140
2017-08-14T05:53:43.876Z,140
2017-08-14T05:54:54.178Z,140
2017-08-14T05:56:04.468Z,145
2017-08-14T05:57:14.427Z,145
2017-08-14T05:58:24.380Z,145
2017-08-14T05:59:34.339Z,150
2017-08-14T06:00:44.297Z,145
2017-08-14T06:01:54.562Z,145
2017-08-14T06:03:04.834Z,145
2017-08-14T06:04:15.100Z,145
2017-08-14T06:05:25.369Z,145
2017-08-14T06:06:35.646Z,150
2017-08-14T06:07:45.284Z,150
2017-08-14T06:08:55.243Z,150
2017-08-14T06:10:05.510Z,150
2017-08-14T06:11:15.777Z,150
2017-08-14T06:12:26.047Z,150
2017-08-14T06:13:36.314Z,150
2017-08-14T06:14:46.589Z,150
2017-08-14T06:15:56.869Z,150
2017-08-14T06:17:07.138Z,150
2017-08-14T06:18:18.560Z,155
2017-08-14T06:19:28.539Z,155
2017-08-14T06:20:38.499Z,155
2017-08-14T06:21:48.768Z,155
2017-08-14T06:22:59.095Z,155
2017-08-14T06:24:09.055Z,150
2017-08-14T06:25:19.004Z,150
2017-08-14T06:26:29.277Z,150
2017-08-14T06:27:39.231Z,150
2017-08-14T06:28:49.189Z,150
2017-08-14T06:29:59.457Z,150
2017-08-14T06:31:09.762Z,160
2017-08-14T06:32:20.032Z,155
2017-08-14T06:33:30.013Z,155
2017-08-14T06:34:40.860Z,155
2017-08-14T06:35:50.501Z,155
2017-08-14T06:37:00.776Z,155
2017-08-14T06:38:10.738Z,155
2017-08-14T06:39:21.022Z,155
2017-08-14T06:40:31.291Z,155
2017-08-14T06:41:40.930Z,155
2017-08-14T06:42:50.883Z,155
2017-08-14T06:44:01.160Z,155
2017-08-14T06:45:11.437Z,155
2017-08-14T06:46:21.705Z,160
2017-08-14T06:47:31.979Z,160
2017-08-14T06:48:42.251Z,160
2017-08-14T06:49:52.526Z,160
2017-08-14T06:51:02.482Z,160
2017-08-14T06:52:12.748Z,160
2017-08-14T06:53:23.016Z,160
2017-08-14T06:54:33.284Z,160
2017-08-14T06:55:43.237Z,160
2017-08-14T06:56:53.197Z,160
2017-08-14T06:58:03.149Z,160
2017-08-14T06:59:13.417Z,160
2017-08-14T07:00:23.372Z,160
2017-08-14T07:01:33.639Z,165
2017-08-14T07:02:43.595Z,160
2017-08-14T07:03:53.865Z,170
2017-08-14T07:05:04.139Z,165
2017-08-14T07:06:13.787Z,165
2017-08-14T07:07:24.064Z,165
2017-08-14T07:08:34.331Z,165
2017-08-14T07:09:44.602Z,165
2017-08-14T07:10:54.565Z,165
2017-08-14T07:12:04.864Z,165
2017-08-14T07:13:14.851Z,165
2017-08-14T07:14:25.118Z,165
2017-08-14T07:15:34.450Z,165
2017-08-14T07:16:44.729Z,165
2017-08-14T07:17:54.689Z,165
2017-08-14T07:19:04.645Z,165
2017-08-14T07:20:14.916Z,170
2017-08-14T07:21:25.188Z,170
2017-08-14T07:22:35.149Z,170
2017-08-14T07:23:45.112Z,170
2017-08-14T07:24:55.396Z,170
2017-08-14T07:26:05.671Z,170
2017-08-14T07:27:15.940Z,170
2017-08-14T07:28:26.215Z,170
2017-08-14T07:29:36.175Z,170
2017-08-14T07:30:46.129Z,170
2017-08-14T07:31:56.096Z,170
2017-08-14T07:33:06.367Z,170
2017-08-14T07:34:16.636Z,170
2017-08-14T07:35:26.908Z,170
2017-08-14T07:36:37.178Z,175
2017-08-14T07:37:46.824Z,175
2017-08-14T07:38:57.095Z,175
2017-08-14T07:40:07.368Z,175
2017-08-14T07:41:17.638Z,175
2017-08-14T07:42:27.906Z,175
2017-08-14T07:43:37.549Z,175
2017-08-14T07:44:47.504Z,175
2017-08-14T07:45:57.151Z,175
2017-08-14T07:47:07.423Z,175
2017-08-14T07:48:17.692Z,175
2017-08-14T07:49:29.922Z,175
2017-08-14T07:50:40.195Z,175
2017-08-14T07:51:50.165Z,175
2017-08-14T07:53:00.438Z,175
2017-08-14T07:54:10.392Z,175
2017-08-14T07:55:20.348Z,175
2017-08-14T07:56:30.616Z,175
2017-08-14T07:57:40.887Z,175
2017-08-14T07:58:50.559Z,175
2017-08-14T08:00:00.833Z,175
2017-08-14T08:01:11.107Z,175
2017-08-14T08:02:21.384Z,175
2017-08-14T08:03:31.341Z,175
2017-08-14T08:04:41.613Z,175
2017-08-14T08:05:51.893Z,175
2017-08-14T08:07:01.853Z,175
2017-08-14T08:08:11.494Z,175
2017-08-14T08:09:21.452Z,175
2017-08-14T08:10:30.784Z,175
2017-08-14T08:11:40.746Z,175
2017-08-14T08:12:51.024Z,180
2017-08-14T08:14:01.298Z,180
2017-08-14T08:15:11.570Z,180
2017-08-14T08:16:21.229Z,180
2017-08-14T08:17:31.505Z,180
2017-08-14T08:18:41.785Z,180
2017-08-14T08:19:52.057Z,185
2017-08-14T08:21:02.035Z,185
2017-08-14T08:22:12.308Z,185
2017-08-14T08:23:22.579Z,185
2017-08-14T08:24:32.857Z,180
2017-08-14T08:25:42.817Z,180
2017-08-14T08:26:53.089Z,185
2017-08-14T08:28:03.363Z,190
2017-08-14T08:29:13.633Z,185
2017-08-14T08:30:23.587Z,185
2017-08-14T08:31:33.236Z,185
2017-08-14T08:32:43.201Z,185
2017-08-14T08:33:53.475Z,185
2017-08-14T08:35:03.433Z,185
2017-08-14T08:36:13.709Z,185
2017-08-14T08:37:23.987Z,185
2017-08-14T08:38:34.260Z,185
2017-08-14T08:39:44.531Z,185
2017-08-14T08:40:54.488Z,185
2017-08-14T08:42:04.836Z,185
2017-08-14T08:43:15.108Z,185
2017-08-14T08:44:24.750Z,185
2017-08-14T08:45:35.020Z,190
2017-08-14T08:46:45.311Z,190
2017-08-14T08:47:55.585Z,190
2017-08-14T08:49:05.859Z,190
2017-08-14T08:50:15.817Z,190
2017-08-14T08:51:25.777Z,190
2017-08-14T08:52:36.061Z,190
2017-08-14T08:53:45.703Z,190
2017-08-14T08:54:55.665Z,190
2017-08-14T08:56:05.936Z,190
2017-08-14T08:57:15.893Z,190
2017-08-14T08:58:25.850Z,190
2017-08-14T08:59:36.122Z,190
2017-08-14T09:00:45.452Z,200
2017-08-14T09:01:55.726Z,195
2017-08-14T09:03:05.684Z,195
2017-08-14T09:04:15.958Z,195
2017-08-14T09:05:25.604Z,195
2017-08-14T09:06:35.880Z,195
2017-08-14T09:07:45.530Z,195
2017-08-14T09:08:55.493Z,195
2017-08-14T09:10:05.770Z,195
2017-08-14T09:11:15.729Z,200
2017-08-14T09:12:25.686Z,200
2017-08-14T09:13:34.699Z,200
2017-08-14T09:14:44.352Z,200
2017-08-14T09:15:54.630Z,200
2017-08-14T09:17:04.912Z,200
2017-08-14T09:18:15.184Z,200
2017-08-14T09:19:24.556Z,200
2017-08-14T09:20:34.831Z,200
2017-08-14T09:21:45.108Z,205
2017-08-14T09:22:55.387Z,205
2017-08-14T09:24:05.659Z,205
2017-08-14T09:25:15.940Z,205
2017-08-14T09:26:26.218Z,210
2017-08-14T09:27:36.189Z,210
2017-08-14T09:28:46.464Z,210
2017-08-14T09:29:56.428Z,210
2017-08-14T09:31:06.707Z,210
2017-08-14T09:32:16.665Z,210
2017-08-14T09:33:26.313Z,210
2017-08-14T09:34:36.273Z,215
2017-08-14T09:35:46.242Z,215
2017-08-14T09:36:56.200Z,220
2017-08-14T09:38:06.475Z,220
2017-08-14T09:39:16.749Z,225
2017-08-14T09:40:27.024Z,230
2017-08-14T09:41:37.298Z,235
2017-08-14T09:42:47.273Z,235
2017-08-14T09:43:56.916Z,230
2017-08-14T09:45:07.216Z,235
2017-08-14T09:46:17.176Z,240
2017-08-14T09:47:27.139Z,245
2017-08-14T09:48:37.102Z,250
2017-08-14T09:49:47.058Z,255
2017-08-14T09:50:57.332Z,255
2017-08-14T09:52:07.725Z,260
2017-08-14T09:53:17.997Z,265
2017-08-14T09:54:27.967Z,275
2017-08-14T09:55:37.950Z,285
2017-08-14T09:56:47.911Z,290
2017-08-14T09:57:58.184Z,285
2017-08-14T09:59:08.140Z,290
2017-08-14T10:00:18.413Z,300
2017-08-14T10:01:28.697Z,330
2017-08-14T10:02:38.972Z,345
2017-08-14T10:03:48.932Z,340
2017-08-14T10:04:59.231Z,325
2017-08-14T10:06:09.509Z,325
2017-08-14T10:07:19.789Z,315
2017-08-14T10:08:30.067Z,325
2017-08-14T10:09:40.349Z,330
2017-08-14T10:10:49.991Z,335
2017-08-14T10:12:00.264Z,345
2017-08-14T10:13:09.612Z,330
2017-08-14T10:14:19.573Z,310
2017-08-14T10:15:29.533Z,290
2017-08-14T10:16:39.491Z,280
2017-08-14T10:17:49.776Z,285
2017-08-14T10:19:00.060Z,285
2017-08-14T10:20:09.707Z,290
2017-08-14T10:21:19.669Z,295
2017-08-14T10:22:29.943Z,300
2017-08-14T10:23:39.901Z,300
2017-08-14T10:24:49.864Z,295
2017-08-14T10:25:59.828Z,295
2017-08-14T10:27:10.104Z,300
2017-08-14T10:28:20.081Z,290
2017-08-14T10:29:30.041Z,285
2017-08-14T10:30:40.011Z,280
2017-08-14T10:31:50.286Z,275
2017-08-14T10:32:59.929Z,275
2017-08-14T10:34:09.575Z,280
2017-08-14T10:35:19.863Z,280
2017-08-14T10:36:29.821Z,285
2017-08-14T10:37:39.782Z,285
2017-08-14T10:38:49.746Z,290
2017-08-14T10:40:00.022Z,290
2017-08-14T10:41:10.370Z,290
2017-08-14T10:42:20.327Z,290
2017-08-14T10:43:30.613Z,285
2017-08-14T10:44:40.897Z,285
2017-08-14T10:45:49.913Z,295
2017-08-14T10:47:00.226Z,305
2017-08-14T10:48:09.868Z,290
2017-08-14T10:49:20.143Z,280
2017-08-14T10:50:30.100Z,280
2017-08-14T10:51:40.374Z,280
2017-08-14T10:52:50.658Z,280
2017-08-14T10:54:00.621Z,280
2017-08-14T10:55:10.583Z,280
2017-08-14T10:56:20.234Z,285
2017-08-14T10:57:29.879Z,285
2017-08-14T10:58:39.845Z,290
2017-08-14T10:59:50.124Z,290
2017-08-14T11:01:00.416Z,285
2017-08-14T11:02:10.695Z,285
2017-08-14T11:03:20.654Z,280
2017-08-14T11:04:30.301Z,280
2017-08-14T11:05:40.585Z,280
2017-08-14T11:06:50.553Z,285
2017-08-14T11:08:00.825Z,295
2017-08-14T11:09:10.787Z,300
2017-08-14T11:10:21.062Z,315
2017-08-14T11:11:31.337Z,310
2017-08-14T11:12:41.615Z,310
2017-08-14T11:13:51.952Z,345
2017-08-14T11:15:01.598Z,375
2017-08-14T11:16:11.874Z,405
2017-08-14T11:17:22.150Z,435
2017-08-14T11:18:31.797Z,455
2017-08-14T11:19:42.068Z,425
2017-08-14T11:20:52.042Z,390
2017-08-14T11:22:02.318Z,400
2017-08-14T11:23:12.612Z,425
2017-08-14T11:24:22.891Z,425
2017-08-14T11:25:33.175Z,450
2017-08-14T11:26:43.453Z,485
2017-08-14T11:27:53.419Z,1175
2017-08-14T11:29:03.700Z,2650
2017-08-14T11:30:13.976Z,2640
2017-08-14T11:31:24.254Z,2615
2017-08-14T11:32:34.223Z,2770
2017-08-14T11:33:44.189Z,2900
2017-08-14T11:34:54.469Z,2810
2017-08-14T11:36:04.750Z,2725
2017-08-14T11:37:14.715Z,3055
2017-08-14T11:38:24.366Z,1115
2017-08-14T11:39:34.660Z,2805
2017-08-14T11:40:44.937Z,2880
2017-08-14T11:41:54.587Z,2855
2017-08-14T11:43:04.874Z,1325
2017-08-14T11:44:14.840Z,1635
2017-08-14T11:45:25.137Z,2840
2017-08-14T11:46:35.448Z,2910
2017-08-14T11:47:45.731Z,2865
2017-08-14T11:48:56.095Z,2780
2017-08-14T11:50:06.380Z,2960
2017-08-14T11:51:16.037Z,2740
2017-08-14T11:52:26.005Z,2580
2017-08-14T11:53:35.979Z,2880
2017-08-14T11:54:45.955Z,2735
2017-08-14T11:55:56.256Z,2740
2017-08-14T11:57:06.234Z,515
2017-08-14T11:58:16.209Z,2765
2017-08-14T11:59:25.866Z,2465
2017-08-14T12:00:35.835Z,1795
2017-08-14T12:01:46.146Z,510
2017-08-14T12:02:55.488Z,665
2017-08-14T12:04:05.466Z,2110
2017-08-14T12:05:15.444Z,2770
2017-08-14T12:06:25.737Z,1790
2017-08-14T12:07:35.707Z,625
2017-08-14T12:08:45.687Z,1530
2017-08-14T12:09:55.978Z,1700
2017-08-14T12:11:06.274Z,1205
2017-08-14T12:12:16.562Z,2645
2017-08-14T12:13:26.216Z,2375
2017-08-14T12:14:36.501Z,1105
2017-08-14T12:15:46.158Z,1385
2017-08-14T12:16:55.816Z,2970
2017-08-14T12:18:06.103Z,1115
2017-08-14T12:19:15.762Z,3150
2017-08-14T12:20:26.049Z,3140
2017-08-14T12:21:36.341Z,3175
2017-08-14T12:22:46.630Z,3100
2017-08-14T12:23:56.918Z,3025
2017-08-14T12:25:07.207Z,835
2017-08-14T12:26:17.502Z,620
2017-08-14T12:27:27.790Z,555
2017-08-14T12:28:37.761Z,680
2017-08-14T12:29:48.076Z,3275
2017-08-14T12:30:58.375Z,3155
2017-08-14T12:32:08.034Z,3115
2017-08-14T12:33:18.008Z,2905
2017-08-14T12:34:28.016Z,3075
2017-08-14T12:35:38.310Z,1320
2017-08-14T12:36:48.286Z,1600
2017-08-14T12:37:58.582Z,2280
2017-08-14T12:39:08.874Z,1665
2017-08-14T12:40:18.533Z,2695
2017-08-14T12:41:28.505Z,1925
2017-08-14T12:42:38.164Z,700
2017-08-14T12:43:48.143Z,730
2017-08-14T12:44:58.432Z,1855
2017-08-14T12:46:08.719Z,1745
2017-08-14T12:47:18.718Z,2335
2017-08-14T12:48:28.381Z,2490
2017-08-14T12:49:38.669Z,770
2017-08-14T12:50:48.646Z,715
2017-08-14T12:51:58.624Z,830
2017-08-14T12:53:08.911Z,1170
2017-08-14T12:54:18.597Z,865
2017-08-14T12:55:28.572Z,790
2017-08-14T12:56:38.543Z,625
2017-08-14T12:57:48.515Z,1540
2017-08-14T12:58:58.799Z,3345
2017-08-14T13:00:08.771Z,3705
2017-08-14T13:01:18.427Z,3095
2017-08-14T13:02:28.396Z,2795
2017-08-14T13:03:38.379Z,2575
2017-08-14T13:04:48.350Z,2685
2017-08-14T13:05:58.333Z,2975
2017-08-14T13:07:08.314Z,3205
2017-08-14T13:08:18.598Z,3155
2017-08-14T13:09:28.638Z,2940
2017-08-14T13:10:38.613Z,3090
2017-08-14T13:11:48.274Z,3515
2017-08-14T13:12:58.564Z,3105
2017-08-14T13:14:08.861Z,3135
2017-08-14T13:15:19.154Z,3210
2017-08-14T13:16:29.145Z,3070
2017-08-14T13:17:39.436Z,2940
2017-08-14T13:18:49.722Z,3095
2017-08-14T13:20:00.008Z,3055
2017-08-14T13:21:10.299Z,3055
2017-08-14T13:22:20.275Z,3255
2017-08-14T13:23:30.253Z,3320
2017-08-14T13:24:40.547Z,3240
2017-08-14T13:25:50.523Z,3250
2017-08-14T13:27:00.501Z,3005
2017-08-14T13:28:10.484Z,2830
2017-08-14T13:29:20.145Z,3285
2017-08-14T13:30:30.127Z,3275
2017-08-14T13:31:39.785Z,3160
2017-08-14T13:32:49.763Z,3060
2017-08-14T13:34:00.055Z,3135
2017-08-14T13:35:10.346Z,3295
2017-08-14T13:36:20.014Z,3150
2017-08-14T13:37:30.301Z,3210
2017-08-14T13:38:40.594Z,3055
2017-08-14T13:39:50.567Z,3130
2017-08-14T13:41:00.541Z,3180
2017-08-14T13:42:10.519Z,3280
2017-08-14T13:43:20.805Z,3160
2017-08-14T13:44:30.781Z,3100
2017-08-14T13:45:41.382Z,3120
2017-08-14T13:46:50.414Z,3205
2017-08-14T13:48:00.074Z,3205
2017-08-14T13:49:10.365Z,3145
2017-08-14T13:50:20.654Z,3070
2017-08-14T13:51:30.315Z,3080
2017-08-14T13:52:40.609Z,2935
2017-08-14T13:53:50.277Z,2875
2017-08-14T13:55:00.565Z,2890
2017-08-14T13:56:10.855Z,2875
2017-08-14T13:57:20.828Z,2680
2017-08-14T13:58:31.120Z,2865
2017-08-14T13:59:41.413Z,2845
2017-08-14T14:00:51.707Z,2915
2017-08-14T14:02:01.680Z,2730
2017-08-14T14:03:11.656Z,2615
2017-08-14T14:04:21.639Z,2535
2017-08-14T14:05:31.612Z,2595
2017-08-14T14:06:41.589Z,2690
2017-08-14T14:07:51.580Z,1930
2017-08-14T14:09:01.580Z,1420
2017-08-14T14:10:11.599Z,2005
2017-08-14T14:11:21.900Z,3020
2017-08-14T14:12:31.876Z,2940
2017-08-14T14:13:41.851Z,2395
2017-08-14T14:14:51.209Z,2735
2017-08-14T14:16:00.877Z,2835
2017-08-14T14:17:10.858Z,2820
2017-08-14T14:18:20.842Z,2645
2017-08-14T14:19:31.131Z,2510
2017-08-14T14:20:41.119Z,2530
2017-08-14T14:21:51.435Z,2260
2017-08-14T14:23:01.719Z,2410
2017-08-14T14:24:11.379Z,2580
2017-08-14T14:25:21.358Z,2615
2017-08-14T14:26:31.644Z,2585
2017-08-14T14:27:41.939Z,2640
2017-08-14T14:28:51.597Z,2710
2017-08-14T14:30:01.887Z,2685
2017-08-14T14:31:12.200Z,2675
2017-08-14T14:32:22.499Z,2400
2017-08-14T14:33:32.796Z,2630
2017-08-14T14:34:43.091Z,2680
2017-08-14T14:35:53.383Z,2550
2017-08-14T14:37:03.357Z,2655
2017-08-14T14:38:13.367Z,2635
2017-08-14T14:39:23.339Z,2500
2017-08-14T14:40:33.314Z,2585
2017-08-14T14:41:43.606Z,2640
2017-08-14T14:42:53.896Z,2475
2017-08-14T14:44:03.241Z,2215
2017-08-14T14:45:13.532Z,2200
2017-08-14T14:46:23.825Z,2165
2017-08-14T14:47:33.167Z,2180
2017-08-14T14:48:43.454Z,2180
2017-08-14T14:49:53.740Z,2210
2017-08-14T14:51:03.404Z,2160
2017-08-14T14:52:13.381Z,2350
2017-08-14T14:53:23.671Z,2305
2017-08-14T14:54:33.956Z,2170
2017-08-14T14:55:44.247Z,2125
2017-08-14T14:56:53.906Z,2010
2017-08-14T14:58:03.891Z,2185
2017-08-14T14:59:13.863Z,1845
2017-08-14T15:00:24.159Z,2210
2017-08-14T15:01:34.133Z,2220
2017-08-14T15:02:44.421Z,2175
2017-08-14T15:03:54.080Z,2160
2017-08-14T15:05:04.059Z,1890
2017-08-14T15:06:14.034Z,1720
2017-08-14T15:07:24.015Z,2410
2017-08-14T15:08:33.986Z,2480
2017-08-14T15:09:43.958Z,2480
2017-08-14T15:10:53.618Z,2630
2017-08-14T15:12:03.591Z,2470
2017-08-14T15:13:13.258Z,2640
2017-08-14T15:14:23.244Z,2005
2017-08-14T15:15:33.540Z,1605
2017-08-14T15:16:43.532Z,1755
2017-08-14T15:17:53.830Z,1730
2017-08-14T15:19:04.118Z,1725
2017-08-14T15:20:14.112Z,2060
2017-08-14T15:21:24.403Z,2185
2017-08-14T15:22:34.066Z,2280
2017-08-14T15:23:44.355Z,2430
2017-08-14T15:24:54.327Z,2440
2017-08-14T15:26:04.617Z,2525
2017-08-14T15:27:13.966Z,2525
2017-08-14T15:28:23.943Z,2605
2017-08-14T15:29:34.231Z,2560
2017-08-14T15:30:44.519Z,2525
2017-08-14T15:31:54.177Z,2540
2017-08-14T15:33:04.468Z,2155
2017-08-14T15:34:14.759Z,1285
2017-08-14T15:35:24.732Z,810
2017-08-14T15:36:35.022Z,505
2017-08-14T15:37:45.003Z,440
2017-08-14T15:38:54.998Z,450
2017-08-14T15:40:05.286Z,490
2017-08-14T15:41:14.958Z,620
2017-08-14T15:42:25.247Z,550
2017-08-14T15:43:35.221Z,550
2017-08-14T15:44:45.218Z,515
2017-08-14T15:45:55.519Z,460
2017-08-14T15:47:05.495Z,460
2017-08-14T15:48:15.152Z,470
2017-08-14T15:49:25.443Z,470
2017-08-14T15:50:35.727Z,515
2017-08-14T15:51:45.700Z,595
2017-08-14T15:52:55.987Z,470
2017-08-14T15:54:06.279Z,445
2017-08-14T15:55:16.567Z,435
2017-08-14T15:56:26.220Z,415
2017-08-14T15:57:36.197Z,395
2017-08-14T15:58:46.488Z,380
2017-08-14T15:59:56.771Z,365
2017-08-14T16:01:06.747Z,365
2017-08-14T16:02:16.714Z,360
2017-08-14T16:03:26.368Z,360
2017-08-14T16:04:36.026Z,365
2017-08-14T16:05:46.306Z,370
2017-08-14T16:06:56.592Z,370
2017-08-14T16:08:06.578Z,375
2017-08-14T16:09:16.546Z,380
2017-08-14T16:10:26.518Z,390
2017-08-14T16:11:36.802Z,390
2017-08-14T16:12:47.083Z,395
2017-08-14T16:13:57.364Z,395